Diadema Argentina, Argentina
Current Conditions -  °F | °C
As of 11:00 PM on Friday 21 Nov 2014 (Local Time) from SAVC Reporting Station
Clear Clear  
Wind Chill: 18°   Ceiling: Unl
Heat Index: 18°   Visibility: 6mi
Dew Point:   Wind: 21mph
Humidity: 34%   Direction: 270°W
Pressure: 29.77"   Gusts: NA
Location:  45.77°S, 67.67°W
Report Text: SAVC 220200Z 27018KT CAVOK 18/02 Q1008
Loading
Personal Weather Stations






























Interactive Weather Map New forecast layout! Learn more

10-Day Weather Forecast

Advertisements
Track Severe Weather on mobile